sensor_id;sensor_type;location;lat;lon;timestamp;P1;durP1;ratioP1;P2;durP2;ratioP2
27543;SDS011;17996;51.056;3.656;2023-10-31T00:00:17;37.10;;;19.95;;
27543;SDS011;17996;51.056;3.656;2023-10-31T00:02:43;31.38;;;20.92;;
27543;SDS011;17996;51.056;3.656;2023-10-31T00:05:09;36.08;;;20.52;;
27543;SDS011;17996;51.056;3.656;2023-10-31T00:07:34;38.22;;;19.58;;
27543;SDS011;17996;51.056;3.656;2023-10-31T00:10:00;30.63;;;20.92;;
27543;SDS011;17996;51.056;3.656;2023-10-31T00:12:26;39.22;;;22.75;;
27543;SDS011;17996;51.056;3.656;2023-10-31T00:14:52;30.73;;;20.88;;
27543;SDS011;17996;51.056;3.656;2023-10-31T00:17:18;33.58;;;18.88;;
27543;SDS011;17996;51.056;3.656;2023-10-31T00:19:43;28.20;;;18.60;;
27543;SDS011;17996;51.056;3.656;2023-10-31T00:22:09;26.80;;;17.33;;
27543;SDS011;17996;51.056;3.656;2023-10-31T00:24:35;28.38;;;17.63;;
27543;SDS011;17996;51.056;3.656;2023-10-31T00:27:01;40.22;;;17.70;;
27543;SDS011;17996;51.056;3.656;2023-10-31T00:29:26;37.80;;;17.83;;
27543;SDS011;17996;51.056;3.656;2023-10-31T00:31:52;32.50;;;18.17;;
27543;SDS011;17996;51.056;3.656;2023-10-31T00:34:18;26.38;;;15.88;;
27543;SDS011;17996;51.056;3.656;2023-10-31T00:36:44;25.92;;;16.35;;
27543;SDS011;17996;51.056;3.656;2023-10-31T00:39:09;33.10;;;16.35;;
27543;SDS011;17996;51.056;3.656;2023-10-31T00:41:35;23.30;;;14.20;;
27543;SDS011;17996;51.056;3.656;2023-10-31T00:44:01;22.00;;;14.23;;
27543;SDS011;17996;51.056;3.656;2023-10-31T00:46:26;23.42;;;14.23;;
27543;SDS011;17996;51.056;3.656;2023-10-31T00:48:52;24.42;;;14.18;;
27543;SDS011;17996;51.056;3.656;2023-10-31T00:51:18;23.23;;;15.35;;
27543;SDS011;17996;51.056;3.656;2023-10-31T00:53:43;24.23;;;14.57;;
27543;SDS011;17996;51.056;3.656;2023-10-31T00:56:09;29.25;;;14.68;;
27543;SDS011;17996;51.056;3.656;2023-10-31T00:58:35;23.67;;;13.45;;
27543;SDS011;17996;51.056;3.656;2023-10-31T01:01:00;23.17;;;13.75;;
27543;SDS011;17996;51.056;3.656;2023-10-31T01:03:26;29.30;;;13.73;;
27543;SDS011;17996;51.056;3.656;2023-10-31T01:05:52;21.58;;;13.10;;
27543;SDS011;17996;51.056;3.656;2023-10-31T01:08:17;18.67;;;13.07;;
27543;SDS011;17996;51.056;3.656;2023-10-31T01:10:43;19.63;;;13.20;;
27543;SDS011;17996;51.056;3.656;2023-10-31T01:13:09;27.23;;;13.57;;
27543;SDS011;17996;51.056;3.656;2023-10-31T01:15:34;20.88;;;13.80;;
27543;SDS011;17996;51.056;3.656;2023-10-31T01:18:00;25.20;;;14.40;;
27543;SDS011;17996;51.056;3.656;2023-10-31T01:20:25;25.13;;;14.23;;
27543;SDS011;17996;51.056;3.656;2023-10-31T01:22:52;23.63;;;14.63;;
27543;SDS011;17996;51.056;3.656;2023-10-31T01:25:17;23.50;;;13.77;;
27543;SDS011;17996;51.056;3.656;2023-10-31T01:27:43;19.88;;;14.18;;
27543;SDS011;17996;51.056;3.656;2023-10-31T01:30:09;24.20;;;14.32;;
27543;SDS011;17996;51.056;3.656;2023-10-31T01:32:35;26.85;;;13.73;;
27543;SDS011;17996;51.056;3.656;2023-10-31T01:35:00;28.55;;;14.63;;
27543;SDS011;17996;51.056;3.656;2023-10-31T01:37:27;24.55;;;14.77;;
27543;SDS011;17996;51.056;3.656;2023-10-31T01:39:52;23.90;;;13.60;;
27543;SDS011;17996;51.056;3.656;2023-10-31T01:42:18;21.92;;;14.48;;
27543;SDS011;17996;51.056;3.656;2023-10-31T01:44:44;23.67;;;14.07;;
27543;SDS011;17996;51.056;3.656;2023-10-31T01:47:09;22.63;;;14.02;;
27543;SDS011;17996;51.056;3.656;2023-10-31T01:49:36;23.80;;;15.27;;
27543;SDS011;17996;51.056;3.656;2023-10-31T01:52:05;23.77;;;13.85;;
27543;SDS011;17996;51.056;3.656;2023-10-31T01:54:32;30.58;;;13.75;;
27543;SDS011;17996;51.056;3.656;2023-10-31T01:56:59;19.20;;;12.75;;
27543;SDS011;17996;51.056;3.656;2023-10-31T01:59:25;18.83;;;11.68;;
27543;SDS011;17996;51.056;3.656;2023-10-31T02:01:52;21.20;;;12.18;;
27543;SDS011;17996;51.056;3.656;2023-10-31T02:04:18;16.63;;;10.77;;
27543;SDS011;17996;51.056;3.656;2023-10-31T02:06:44;15.15;;;9.23;;
27543;SDS011;17996;51.056;3.656;2023-10-31T02:09:09;19.60;;;10.95;;
27543;SDS011;17996;51.056;3.656;2023-10-31T02:11:35;19.35;;;9.35;;
27543;SDS011;17996;51.056;3.656;2023-10-31T02:14:02;21.88;;;10.45;;
27543;SDS011;17996;51.056;3.656;2023-10-31T02:16:27;15.10;;;8.70;;
27543;SDS011;17996;51.056;3.656;2023-10-31T02:18:53;11.82;;;8.02;;
27543;SDS011;17996;51.056;3.656;2023-10-31T02:21:19;11.90;;;7.20;;
27543;SDS011;17996;51.056;3.656;2023-10-31T02:23:58;11.63;;;7.35;;
27543;SDS011;17996;51.056;3.656;2023-10-31T02:26:33;14.27;;;7.13;;
27543;SDS011;17996;51.056;3.656;2023-10-31T02:29:00;14.07;;;7.07;;
27543;SDS011;17996;51.056;3.656;2023-10-31T02:31:26;10.07;;;6.15;;
27543;SDS011;17996;51.056;3.656;2023-10-31T02:33:52;10.98;;;5.40;;
27543;SDS011;17996;51.056;3.656;2023-10-31T02:36:18;8.50;;;4.88;;
27543;SDS011;17996;51.056;3.656;2023-10-31T02:38:45;11.75;;;5.13;;
27543;SDS011;17996;51.056;3.656;2023-10-31T02:41:11;8.68;;;4.82;;
27543;SDS011;17996;51.056;3.656;2023-10-31T02:43:37;7.63;;;4.20;;
27543;SDS011;17996;51.056;3.656;2023-10-31T02:46:03;7.78;;;4.05;;
27543;SDS011;17996;51.056;3.656;2023-10-31T02:48:29;9.38;;;4.38;;
27543;SDS011;17996;51.056;3.656;2023-10-31T02:50:57;8.98;;;5.22;;
27543;SDS011;17996;51.056;3.656;2023-10-31T02:53:23;11.15;;;5.95;;
27543;SDS011;17996;51.056;3.656;2023-10-31T02:55:48;12.23;;;6.35;;
27543;SDS011;17996;51.056;3.656;2023-10-31T02:58:14;12.57;;;7.20;;
27543;SDS011;17996;51.056;3.656;2023-10-31T03:00:42;11.35;;;7.10;;
27543;SDS011;17996;51.056;3.656;2023-10-31T03:03:08;11.63;;;8.18;;
27543;SDS011;17996;51.056;3.656;2023-10-31T03:05:34;10.15;;;6.90;;
27543;SDS011;17996;51.056;3.656;2023-10-31T03:07:59;16.92;;;7.55;;
27543;SDS011;17996;51.056;3.656;2023-10-31T03:10:26;11.15;;;7.18;;
27543;SDS011;17996;51.056;3.656;2023-10-31T03:12:51;13.88;;;6.75;;
27543;SDS011;17996;51.056;3.656;2023-10-31T03:15:17;10.82;;;6.63;;
27543;SDS011;17996;51.056;3.656;2023-10-31T03:17:43;9.25;;;5.88;;
27543;SDS011;17996;51.056;3.656;2023-10-31T03:20:09;12.98;;;6.53;;
27543;SDS011;17996;51.056;3.656;2023-10-31T03:22:35;8.38;;;6.25;;
27543;SDS011;17996;51.056;3.656;2023-10-31T03:25:01;8.48;;;5.75;;
27543;SDS011;17996;51.056;3.656;2023-10-31T03:27:26;12.45;;;5.95;;
27543;SDS011;17996;51.056;3.656;2023-10-31T03:29:52;9.73;;;5.65;;
27543;SDS011;17996;51.056;3.656;2023-10-31T03:32:18;8.90;;;5.45;;
27543;SDS011;17996;51.056;3.656;2023-10-31T03:34:43;8.27;;;6.03;;
27543;SDS011;17996;51.056;3.656;2023-10-31T03:37:09;8.73;;;5.30;;
27543;SDS011;17996;51.056;3.656;2023-10-31T03:39:35;10.25;;;6.32;;
27543;SDS011;17996;51.056;3.656;2023-10-31T03:42:00;13.15;;;5.80;;
27543;SDS011;17996;51.056;3.656;2023-10-31T03:44:26;9.27;;;6.10;;
27543;SDS011;17996;51.056;3.656;2023-10-31T03:46:51;11.75;;;6.18;;
27543;SDS011;17996;51.056;3.656;2023-10-31T03:49:17;8.68;;;6.15;;
27543;SDS011;17996;51.056;3.656;2023-10-31T03:51:43;7.57;;;5.72;;
27543;SDS011;17996;51.056;3.656;2023-10-31T03:54:09;7.28;;;5.70;;
27543;SDS011;17996;51.056;3.656;2023-10-31T03:56:41;7.70;;;6.20;;
27543;SDS011;17996;51.056;3.656;2023-10-31T03:59:08;11.40;;;6.80;;
27543;SDS011;17996;51.056;3.656;2023-10-31T04:01:34;8.93;;;6.90;;
27543;SDS011;17996;51.056;3.656;2023-10-31T04:03:59;10.75;;;6.82;;
27543;SDS011;17996;51.056;3.656;2023-10-31T04:06:25;8.70;;;6.80;;
27543;SDS011;17996;51.056;3.656;2023-10-31T04:08:51;10.98;;;6.72;;
27543;SDS011;17996;51.056;3.656;2023-10-31T04:11:16;10.18;;;6.72;;
27543;SDS011;17996;51.056;3.656;2023-10-31T04:13:42;10.07;;;6.72;;
27543;SDS011;17996;51.056;3.656;2023-10-31T04:16:08;13.07;;;7.72;;
27543;SDS011;17996;51.056;3.656;2023-10-31T04:18:33;13.73;;;7.60;;
27543;SDS011;17996;51.056;3.656;2023-10-31T04:20:59;10.35;;;7.57;;
27543;SDS011;17996;51.056;3.656;2023-10-31T04:23:25;17.27;;;8.38;;
27543;SDS011;17996;51.056;3.656;2023-10-31T04:25:50;13.88;;;8.70;;
27543;SDS011;17996;51.056;3.656;2023-10-31T04:28:17;14.05;;;7.70;;
27543;SDS011;17996;51.056;3.656;2023-10-31T04:30:43;13.43;;;7.85;;
27543;SDS011;17996;51.056;3.656;2023-10-31T04:33:09;12.82;;;7.72;;
27543;SDS011;17996;51.056;3.656;2023-10-31T04:35:35;10.40;;;7.57;;
27543;SDS011;17996;51.056;3.656;2023-10-31T04:38:01;10.93;;;7.13;;
27543;SDS011;17996;51.056;3.656;2023-10-31T04:40:26;12.70;;;7.95;;
27543;SDS011;17996;51.056;3.656;2023-10-31T04:42:52;11.32;;;8.27;;
27543;SDS011;17996;51.056;3.656;2023-10-31T04:45:19;14.40;;;8.90;;
27543;SDS011;17996;51.056;3.656;2023-10-31T04:47:44;12.32;;;8.27;;
27543;SDS011;17996;51.056;3.656;2023-10-31T04:50:10;14.07;;;8.98;;
27543;SDS011;17996;51.056;3.656;2023-10-31T04:52:36;17.92;;;8.50;;
27543;SDS011;17996;51.056;3.656;2023-10-31T04:55:01;14.50;;;9.82;;
27543;SDS011;17996;51.056;3.656;2023-10-31T04:57:27;13.45;;;9.20;;
27543;SDS011;17996;51.056;3.656;2023-10-31T04:59:53;16.55;;;9.60;;
27543;SDS011;17996;51.056;3.656;2023-10-31T05:02:22;11.95;;;9.07;;
27543;SDS011;17996;51.056;3.656;2023-10-31T05:04:48;12.18;;;9.20;;
27543;SDS011;17996;51.056;3.656;2023-10-31T05:07:16;13.93;;;9.73;;
27543;SDS011;17996;51.056;3.656;2023-10-31T05:09:42;15.05;;;9.52;;
27543;SDS011;17996;51.056;3.656;2023-10-31T05:12:08;26.48;;;9.57;;
27543;SDS011;17996;51.056;3.656;2023-10-31T05:14:34;13.52;;;10.07;;
27543;SDS011;17996;51.056;3.656;2023-10-31T05:17:00;15.00;;;9.82;;
27543;SDS011;17996;51.056;3.656;2023-10-31T05:19:26;17.75;;;11.07;;
27543;SDS011;17996;51.056;3.656;2023-10-31T05:21:51;18.70;;;11.45;;
27543;SDS011;17996;51.056;3.656;2023-10-31T05:24:17;19.10;;;12.75;;
27543;SDS011;17996;51.056;3.656;2023-10-31T05:26:43;20.13;;;12.30;;
27543;SDS011;17996;51.056;3.656;2023-10-31T05:29:10;21.58;;;12.40;;
27543;SDS011;17996;51.056;3.656;2023-10-31T05:31:36;24.63;;;14.40;;
27543;SDS011;17996;51.056;3.656;2023-10-31T05:34:01;24.33;;;14.38;;
27543;SDS011;17996;51.056;3.656;2023-10-31T05:36:28;23.48;;;14.65;;
27543;SDS011;17996;51.056;3.656;2023-10-31T05:38:54;20.35;;;14.25;;
27543;SDS011;17996;51.056;3.656;2023-10-31T05:41:20;26.85;;;16.30;;
27543;SDS011;17996;51.056;3.656;2023-10-31T05:43:46;26.77;;;15.32;;
27543;SDS011;17996;51.056;3.656;2023-10-31T05:46:12;24.75;;;15.48;;
27543;SDS011;17996;51.056;3.656;2023-10-31T05:48:41;26.48;;;16.35;;
27543;SDS011;17996;51.056;3.656;2023-10-31T05:51:12;29.30;;;17.65;;
27543;SDS011;17996;51.056;3.656;2023-10-31T05:53:39;28.33;;;16.95;;
27543;SDS011;17996;51.056;3.656;2023-10-31T05:56:05;28.60;;;16.80;;
27543;SDS011;17996;51.056;3.656;2023-10-31T05:58:35;25.08;;;16.45;;
27543;SDS011;17996;51.056;3.656;2023-10-31T06:01:02;24.50;;;16.85;;
27543;SDS011;17996;51.056;3.656;2023-10-31T06:03:28;30.75;;;17.27;;
27543;SDS011;17996;51.056;3.656;2023-10-31T06:05:54;32.25;;;18.63;;
27543;SDS011;17996;51.056;3.656;2023-10-31T06:08:19;28.80;;;17.75;;
27543;SDS011;17996;51.056;3.656;2023-10-31T06:10:45;25.02;;;16.27;;
27543;SDS011;17996;51.056;3.656;2023-10-31T06:13:11;26.48;;;17.02;;
27543;SDS011;17996;51.056;3.656;2023-10-31T06:15:36;29.05;;;18.65;;
27543;SDS011;17996;51.056;3.656;2023-10-31T06:18:02;26.92;;;18.05;;
27543;SDS011;17996;51.056;3.656;2023-10-31T06:20:28;26.95;;;18.58;;
27543;SDS011;17996;51.056;3.656;2023-10-31T06:22:54;29.70;;;17.92;;
27543;SDS011;17996;51.056;3.656;2023-10-31T06:25:19;31.73;;;18.13;;
27543;SDS011;17996;51.056;3.656;2023-10-31T06:27:45;27.23;;;17.55;;
27543;SDS011;17996;51.056;3.656;2023-10-31T06:30:11;28.20;;;18.63;;
27543;SDS011;17996;51.056;3.656;2023-10-31T06:32:37;31.17;;;19.85;;
27543;SDS011;17996;51.056;3.656;2023-10-31T06:35:05;31.05;;;19.25;;
27543;SDS011;17996;51.056;3.656;2023-10-31T06:37:32;29.30;;;18.77;;
27543;SDS011;17996;51.056;3.656;2023-10-31T06:39:57;33.25;;;20.58;;
27543;SDS011;17996;51.056;3.656;2023-10-31T06:42:23;30.02;;;19.70;;
27543;SDS011;17996;51.056;3.656;2023-10-31T06:44:49;27.17;;;18.75;;
27543;SDS011;17996;51.056;3.656;2023-10-31T06:47:14;32.20;;;18.33;;
27543;SDS011;17996;51.056;3.656;2023-10-31T06:49:40;29.30;;;18.73;;
27543;SDS011;17996;51.056;3.656;2023-10-31T06:52:05;27.25;;;18.63;;
27543;SDS011;17996;51.056;3.656;2023-10-31T06:54:31;28.48;;;18.85;;
27543;SDS011;17996;51.056;3.656;2023-10-31T06:56:57;28.67;;;18.90;;
27543;SDS011;17996;51.056;3.656;2023-10-31T06:59:22;35.33;;;20.35;;
27543;SDS011;17996;51.056;3.656;2023-10-31T07:01:48;27.92;;;18.35;;
27543;SDS011;17996;51.056;3.656;2023-10-31T07:04:14;27.98;;;19.05;;
27543;SDS011;17996;51.056;3.656;2023-10-31T07:06:41;30.10;;;18.73;;
27543;SDS011;17996;51.056;3.656;2023-10-31T07:09:07;29.00;;;20.20;;
27543;SDS011;17996;51.056;3.656;2023-10-31T07:11:32;27.15;;;18.83;;
27543;SDS011;17996;51.056;3.656;2023-10-31T07:14:02;27.25;;;19.02;;
27543;SDS011;17996;51.056;3.656;2023-10-31T07:16:29;25.60;;;19.05;;
27543;SDS011;17996;51.056;3.656;2023-10-31T07:18:55;25.65;;;17.63;;
27543;SDS011;17996;51.056;3.656;2023-10-31T07:21:21;26.58;;;16.90;;
27543;SDS011;17996;51.056;3.656;2023-10-31T07:23:46;28.35;;;16.83;;
27543;SDS011;17996;51.056;3.656;2023-10-31T07:26:12;26.25;;;17.83;;
27543;SDS011;17996;51.056;3.656;2023-10-31T07:28:38;28.77;;;18.25;;
27543;SDS011;17996;51.056;3.656;2023-10-31T07:31:03;25.08;;;18.48;;
27543;SDS011;17996;51.056;3.656;2023-10-31T07:33:30;24.27;;;18.40;;
27543;SDS011;17996;51.056;3.656;2023-10-31T07:35:55;27.25;;;19.45;;
27543;SDS011;17996;51.056;3.656;2023-10-31T07:38:21;28.30;;;19.45;;
27543;SDS011;17996;51.056;3.656;2023-10-31T07:40:47;33.75;;;20.95;;
27543;SDS011;17996;51.056;3.656;2023-10-31T07:43:13;42.13;;;24.10;;
27543;SDS011;17996;51.056;3.656;2023-10-31T07:45:40;31.98;;;19.88;;
27543;SDS011;17996;51.056;3.656;2023-10-31T07:48:05;29.55;;;20.40;;
27543;SDS011;17996;51.056;3.656;2023-10-31T07:50:32;25.58;;;19.80;;
27543;SDS011;17996;51.056;3.656;2023-10-31T07:52:58;30.90;;;21.75;;
27543;SDS011;17996;51.056;3.656;2023-10-31T07:55:24;32.55;;;22.17;;
27543;SDS011;17996;51.056;3.656;2023-10-31T07:57:50;31.08;;;22.23;;
27543;SDS011;17996;51.056;3.656;2023-10-31T08:00:16;28.13;;;21.40;;
27543;SDS011;17996;51.056;3.656;2023-10-31T08:02:41;31.55;;;21.65;;
27543;SDS011;17996;51.056;3.656;2023-10-31T08:05:07;29.23;;;20.77;;
27543;SDS011;17996;51.056;3.656;2023-10-31T08:07:35;32.30;;;20.63;;
27543;SDS011;17996;51.056;3.656;2023-10-31T08:10:01;28.55;;;18.75;;
27543;SDS011;17996;51.056;3.656;2023-10-31T08:12:27;34.65;;;16.80;;
27543;SDS011;17996;51.056;3.656;2023-10-31T08:14:52;23.75;;;17.65;;
27543;SDS011;17996;51.056;3.656;2023-10-31T08:17:18;30.10;;;17.60;;
27543;SDS011;17996;51.056;3.656;2023-10-31T08:19:44;24.95;;;17.92;;
27543;SDS011;17996;51.056;3.656;2023-10-31T08:22:09;23.60;;;16.58;;
27543;SDS011;17996;51.056;3.656;2023-10-31T08:24:35;23.13;;;15.20;;
27543;SDS011;17996;51.056;3.656;2023-10-31T08:27:01;27.95;;;15.80;;
27543;SDS011;17996;51.056;3.656;2023-10-31T08:29:27;19.35;;;14.25;;
27543;SDS011;17996;51.056;3.656;2023-10-31T08:31:53;19.98;;;14.50;;
27543;SDS011;17996;51.056;3.656;2023-10-31T08:34:19;25.08;;;14.13;;
27543;SDS011;17996;51.056;3.656;2023-10-31T08:36:45;16.45;;;12.27;;
27543;SDS011;17996;51.056;3.656;2023-10-31T08:39:10;22.10;;;13.05;;
27543;SDS011;17996;51.056;3.656;2023-10-31T08:41:36;22.35;;;13.60;;
27543;SDS011;17996;51.056;3.656;2023-10-31T08:44:04;18.30;;;11.93;;
27543;SDS011;17996;51.056;3.656;2023-10-31T08:46:30;18.63;;;11.65;;
27543;SDS011;17996;51.056;3.656;2023-10-31T08:48:55;20.60;;;11.20;;
27543;SDS011;17996;51.056;3.656;2023-10-31T08:51:21;20.90;;;11.48;;
27543;SDS011;17996;51.056;3.656;2023-10-31T08:53:48;16.63;;;11.02;;
27543;SDS011;17996;51.056;3.656;2023-10-31T08:56:14;23.45;;;11.48;;
27543;SDS011;17996;51.056;3.656;2023-10-31T08:58:39;20.05;;;11.93;;
27543;SDS011;17996;51.056;3.656;2023-10-31T09:01:06;14.52;;;10.50;;
27543;SDS011;17996;51.056;3.656;2023-10-31T09:03:31;16.98;;;12.27;;
27543;SDS011;17996;51.056;3.656;2023-10-31T09:05:57;14.73;;;10.38;;
27543;SDS011;17996;51.056;3.656;2023-10-31T09:08:22;15.93;;;11.80;;
27543;SDS011;17996;51.056;3.656;2023-10-31T09:10:48;18.10;;;11.80;;
27543;SDS011;17996;51.056;3.656;2023-10-31T09:13:14;19.20;;;11.30;;
27543;SDS011;17996;51.056;3.656;2023-10-31T09:15:40;13.07;;;11.18;;
27543;SDS011;17996;51.056;3.656;2023-10-31T09:18:06;20.35;;;12.70;;
27543;SDS011;17996;51.056;3.656;2023-10-31T09:20:32;22.83;;;12.57;;
27543;SDS011;17996;51.056;3.656;2023-10-31T09:22:58;22.50;;;11.57;;
27543;SDS011;17996;51.056;3.656;2023-10-31T09:25:24;17.52;;;11.95;;
27543;SDS011;17996;51.056;3.656;2023-10-31T09:27:49;21.00;;;11.55;;
27543;SDS011;17996;51.056;3.656;2023-10-31T09:30:15;16.95;;;10.30;;
27543;SDS011;17996;51.056;3.656;2023-10-31T09:32:40;19.38;;;10.32;;
27543;SDS011;17996;51.056;3.656;2023-10-31T09:35:06;17.25;;;11.07;;
27543;SDS011;17996;51.056;3.656;2023-10-31T09:37:33;15.00;;;10.48;;
27543;SDS011;17996;51.056;3.656;2023-10-31T09:39:59;18.50;;;10.68;;
27543;SDS011;17996;51.056;3.656;2023-10-31T09:42:24;15.85;;;8.77;;
27543;SDS011;17996;51.056;3.656;2023-10-31T09:44:50;18.27;;;10.13;;
27543;SDS011;17996;51.056;3.656;2023-10-31T09:47:16;14.73;;;10.43;;
27543;SDS011;17996;51.056;3.656;2023-10-31T09:49:42;11.45;;;9.07;;
27543;SDS011;17996;51.056;3.656;2023-10-31T09:52:09;20.33;;;10.77;;
27543;SDS011;17996;51.056;3.656;2023-10-31T09:54:36;19.27;;;10.43;;
27543;SDS011;17996;51.056;3.656;2023-10-31T09:57:03;13.55;;;9.77;;
27543;SDS011;17996;51.056;3.656;2023-10-31T09:59:29;17.42;;;9.77;;
27543;SDS011;17996;51.056;3.656;2023-10-31T10:01:55;16.75;;;9.55;;
27543;SDS011;17996;51.056;3.656;2023-10-31T10:04:21;19.20;;;9.23;;
27543;SDS011;17996;51.056;3.656;2023-10-31T10:06:59;20.85;;;12.00;;
27543;SDS011;17996;51.056;3.656;2023-10-31T10:09:26;17.95;;;9.75;;
27543;SDS011;17996;51.056;3.656;2023-10-31T10:11:53;14.35;;;10.10;;
27543;SDS011;17996;51.056;3.656;2023-10-31T10:14:20;15.25;;;9.20;;
27543;SDS011;17996;51.056;3.656;2023-10-31T10:16:48;19.27;;;11.07;;
27543;SDS011;17996;51.056;3.656;2023-10-31T10:19:15;22.70;;;11.20;;
27543;SDS011;17996;51.056;3.656;2023-10-31T10:24:17;20.25;;;10.70;;
27543;SDS011;17996;51.056;3.656;2023-10-31T10:26:43;17.30;;;11.10;;
27543;SDS011;17996;51.056;3.656;2023-10-31T10:29:09;24.95;;;10.68;;
27543;SDS011;17996;51.056;3.656;2023-10-31T10:31:35;24.63;;;11.18;;
27543;SDS011;17996;51.056;3.656;2023-10-31T10:34:01;19.25;;;10.00;;
27543;SDS011;17996;51.056;3.656;2023-10-31T10:36:26;24.52;;;11.07;;
27543;SDS011;17996;51.056;3.656;2023-10-31T10:38:56;21.75;;;11.50;;
27543;SDS011;17996;51.056;3.656;2023-10-31T10:41:25;14.55;;;10.27;;
27543;SDS011;17996;51.056;3.656;2023-10-31T10:43:55;20.83;;;10.60;;
27543;SDS011;17996;51.056;3.656;2023-10-31T10:46:28;29.02;;;10.02;;
27543;SDS011;17996;51.056;3.656;2023-10-31T10:48:59;14.65;;;8.68;;
27543;SDS011;17996;51.056;3.656;2023-10-31T10:51:28;15.27;;;7.80;;
27543;SDS011;17996;51.056;3.656;2023-10-31T10:54:02;13.48;;;7.60;;
27543;SDS011;17996;51.056;3.656;2023-10-31T10:56:38;15.52;;;8.65;;
27543;SDS011;17996;51.056;3.656;2023-10-31T10:59:08;16.55;;;8.80;;
27543;SDS011;17996;51.056;3.656;2023-10-31T11:01:43;20.48;;;10.85;;
27543;SDS011;17996;51.056;3.656;2023-10-31T11:04:12;19.92;;;10.88;;
27543;SDS011;17996;51.056;3.656;2023-10-31T11:06:38;20.48;;;10.13;;
27543;SDS011;17996;51.056;3.656;2023-10-31T11:09:05;19.55;;;9.70;;
27543;SDS011;17996;51.056;3.656;2023-10-31T11:11:32;23.23;;;10.70;;
27543;SDS011;17996;51.056;3.656;2023-10-31T11:13:58;28.85;;;11.35;;
27543;SDS011;17996;51.056;3.656;2023-10-31T11:16:29;20.40;;;11.00;;
27543;SDS011;17996;51.056;3.656;2023-10-31T11:19:00;22.15;;;13.30;;
27543;SDS011;17996;51.056;3.656;2023-10-31T11:21:29;20.80;;;12.50;;
27543;SDS011;17996;51.056;3.656;2023-10-31T11:23:59;19.83;;;12.65;;
27543;SDS011;17996;51.056;3.656;2023-10-31T11:26:34;23.17;;;12.52;;
27543;SDS011;17996;51.056;3.656;2023-10-31T11:29:15;24.08;;;13.25;;
27543;SDS011;17996;51.056;3.656;2023-10-31T11:31:42;24.63;;;13.63;;
27543;SDS011;17996;51.056;3.656;2023-10-31T11:34:08;22.95;;;12.65;;
27543;SDS011;17996;51.056;3.656;2023-10-31T11:36:37;19.95;;;12.15;;
27543;SDS011;17996;51.056;3.656;2023-10-31T11:39:10;19.13;;;11.60;;
27543;SDS011;17996;51.056;3.656;2023-10-31T11:41:40;14.30;;;10.55;;
27543;SDS011;17996;51.056;3.656;2023-10-31T11:44:11;17.08;;;10.45;;
27543;SDS011;17996;51.056;3.656;2023-10-31T11:46:37;15.45;;;9.65;;
27543;SDS011;17996;51.056;3.656;2023-10-31T11:49:02;12.43;;;9.68;;
27543;SDS011;17996;51.056;3.656;2023-10-31T11:51:30;19.20;;;10.13;;
27543;SDS011;17996;51.056;3.656;2023-10-31T11:53:56;15.48;;;9.82;;
27543;SDS011;17996;51.056;3.656;2023-10-31T11:56:22;16.33;;;10.95;;
27543;SDS011;17996;51.056;3.656;2023-10-31T11:58:54;16.95;;;11.20;;
27543;SDS011;17996;51.056;3.656;2023-10-31T12:01:21;22.90;;;11.10;;
27543;SDS011;17996;51.056;3.656;2023-10-31T12:03:47;15.63;;;10.63;;
27543;SDS011;17996;51.056;3.656;2023-10-31T12:06:14;18.15;;;11.85;;
27543;SDS011;17996;51.056;3.656;2023-10-31T12:08:41;17.13;;;12.82;;
27543;SDS011;17996;51.056;3.656;2023-10-31T12:11:15;16.23;;;12.10;;
27543;SDS011;17996;51.056;3.656;2023-10-31T12:16:25;21.17;;;13.43;;
27543;SDS011;17996;51.056;3.656;2023-10-31T12:18:58;21.80;;;13.25;;
27543;SDS011;17996;51.056;3.656;2023-10-31T12:24:04;19.80;;;12.50;;
27543;SDS011;17996;51.056;3.656;2023-10-31T12:26:34;23.90;;;11.38;;
27543;SDS011;17996;51.056;3.656;2023-10-31T12:29:07;17.83;;;11.38;;
27543;SDS011;17996;51.056;3.656;2023-10-31T12:31:34;17.70;;;11.38;;
27543;SDS011;17996;51.056;3.656;2023-10-31T12:34:06;14.57;;;10.40;;
27543;SDS011;17996;51.056;3.656;2023-10-31T12:36:32;21.88;;;10.88;;
27543;SDS011;17996;51.056;3.656;2023-10-31T12:38:59;18.05;;;10.32;;
27543;SDS011;17996;51.056;3.656;2023-10-31T12:41:26;14.73;;;9.80;;
27543;SDS011;17996;51.056;3.656;2023-10-31T12:43:52;15.10;;;8.98;;
27543;SDS011;17996;51.056;3.656;2023-10-31T12:46:27;15.18;;;9.93;;
27543;SDS011;17996;51.056;3.656;2023-10-31T12:48:55;20.02;;;10.10;;
27543;SDS011;17996;51.056;3.656;2023-10-31T12:53:52;16.13;;;8.40;;
27543;SDS011;17996;51.056;3.656;2023-10-31T12:56:37;16.17;;;9.38;;
27543;SDS011;17996;51.056;3.656;2023-10-31T12:59:07;15.48;;;7.80;;
27543;SDS011;17996;51.056;3.656;2023-10-31T13:01:35;11.75;;;6.65;;
27543;SDS011;17996;51.056;3.656;2023-10-31T13:04:04;8.25;;;5.65;;
27543;SDS011;17996;51.056;3.656;2023-10-31T13:06:30;9.38;;;6.78;;
27543;SDS011;17996;51.056;3.656;2023-10-31T13:08:56;6.65;;;5.20;;
27543;SDS011;17996;51.056;3.656;2023-10-31T13:11:23;13.50;;;5.68;;
27543;SDS011;17996;51.056;3.656;2023-10-31T13:13:53;10.50;;;5.18;;
27543;SDS011;17996;51.056;3.656;2023-10-31T13:16:19;5.95;;;4.15;;
27543;SDS011;17996;51.056;3.656;2023-10-31T13:18:45;7.80;;;4.25;;
27543;SDS011;17996;51.056;3.656;2023-10-31T13:21:11;8.25;;;4.72;;
27543;SDS011;17996;51.056;3.656;2023-10-31T13:23:39;5.67;;;4.20;;
27543;SDS011;17996;51.056;3.656;2023-10-31T13:26:11;5.82;;;4.53;;
27543;SDS011;17996;51.056;3.656;2023-10-31T13:28:37;4.15;;;3.65;;
27543;SDS011;17996;51.056;3.656;2023-10-31T13:31:04;7.40;;;3.70;;
27543;SDS011;17996;51.056;3.656;2023-10-31T13:33:31;8.13;;;3.95;;
27543;SDS011;17996;51.056;3.656;2023-10-31T13:35:56;5.90;;;4.13;;
27543;SDS011;17996;51.056;3.656;2023-10-31T13:38:22;7.22;;;4.75;;
27543;SDS011;17996;51.056;3.656;2023-10-31T13:40:47;6.93;;;3.80;;
27543;SDS011;17996;51.056;3.656;2023-10-31T13:43:13;6.50;;;3.88;;
27543;SDS011;17996;51.056;3.656;2023-10-31T13:45:39;8.10;;;4.35;;
27543;SDS011;17996;51.056;3.656;2023-10-31T13:48:04;6.70;;;4.30;;
27543;SDS011;17996;51.056;3.656;2023-10-31T13:50:31;8.18;;;3.95;;
27543;SDS011;17996;51.056;3.656;2023-10-31T13:52:56;9.70;;;3.90;;
27543;SDS011;17996;51.056;3.656;2023-10-31T13:55:22;17.50;;;4.18;;
27543;SDS011;17996;51.056;3.656;2023-10-31T13:57:50;5.30;;;3.40;;
27543;SDS011;17996;51.056;3.656;2023-10-31T14:00:16;6.38;;;3.63;;
27543;SDS011;17996;51.056;3.656;2023-10-31T14:02:42;8.00;;;4.03;;
27543;SDS011;17996;51.056;3.656;2023-10-31T14:05:08;6.72;;;4.00;;
27543;SDS011;17996;51.056;3.656;2023-10-31T14:07:33;8.23;;;3.65;;
27543;SDS011;17996;51.056;3.656;2023-10-31T14:10:00;12.50;;;4.00;;
27543;SDS011;17996;51.056;3.656;2023-10-31T14:12:26;6.25;;;4.30;;
27543;SDS011;17996;51.056;3.656;2023-10-31T14:14:53;5.25;;;3.90;;
27543;SDS011;17996;51.056;3.656;2023-10-31T14:17:19;7.97;;;3.83;;
27543;SDS011;17996;51.056;3.656;2023-10-31T14:19:47;10.32;;;3.80;;
27543;SDS011;17996;51.056;3.656;2023-10-31T14:22:13;7.30;;;3.17;;
27543;SDS011;17996;51.056;3.656;2023-10-31T14:24:39;9.30;;;4.22;;
27543;SDS011;17996;51.056;3.656;2023-10-31T14:27:05;8.60;;;3.92;;
27543;SDS011;17996;51.056;3.656;2023-10-31T14:29:31;8.65;;;4.07;;
27543;SDS011;17996;51.056;3.656;2023-10-31T14:31:56;8.07;;;3.55;;
27543;SDS011;17996;51.056;3.656;2023-10-31T14:34:29;12.55;;;4.40;;